Time;durP1;ratioP1;P1;durP2;ratioP2;P2;SDS_P1;SDS_P2;PMS_P1;PMS_P2;Temp;Humidity;BMP_temperature;BMP_pressure;BME280_temperature;BME280_humidity;BME280_pressure;Samples;Min_cycle;Max_cycle;Signal;HPM_P1;HPM_P2
2021/12/17 00:05:20;;;;;;;91.85;49.83;;;;;;;7.27;89.46;103909.06;5052297;28;20373;-83
2021/12/17 00:07:22;;;;;;;88.25;49.50;;;;;;;7.24;90.45;103909.81;5048301;28;20033;-80
2021/12/17 00:09:49;;;;;;;91.82;46.83;;;;;;;7.23;89.95;103913.22;5034992;28;20401;-80
2021/12/17 00:12:17;;;;;;;100.93;47.30;;;;;;;7.21;90.60;103912.25;5034937;28;20032;-83
2021/12/17 00:14:47;;;;;;;103.65;50.42;;;;;;;7.22;90.16;103913.16;5035821;28;20070;-84
2021/12/17 00:17:17;;;;;;;102.65;49.97;;;;;;;7.23;90.44;103910.63;5029424;28;20033;-84
2021/12/17 00:49:37;;;;;;;81.95;44.28;;;;;;;7.24;89.91;103903.66;4995611;28;20068;-82
2021/12/17 00:52:04;;;;;;;86.75;45.50;;;;;;;7.26;89.55;103913.38;5034650;28;20033;-84
2021/12/17 00:54:36;;;;;;;94.55;48.33;;;;;;;7.24;89.76;103906.28;5017955;28;20071;-83
2021/12/17 00:57:11;;;;;;;89.78;46.47;;;;;;;7.25;89.89;103906.34;5050796;28;20056;-83
2021/12/17 00:59:37;;;;;;;97.65;49.03;;;;;;;7.20;90.07;103900.03;5034326;28;20499;-85
2021/12/17 01:02:07;;;;;;;128.73;65.85;;;;;;;7.18;90.27;103899.03;5034078;28;20028;-84
2021/12/17 01:04:35;;;;;;;107.38;53.38;;;;;;;7.19;90.48;103900.84;5032072;28;20052;-84
2021/12/17 01:07:02;;;;;;;94.60;48.97;;;;;;;7.16;90.17;103900.69;5034305;28;20039;-83
2021/12/17 01:09:28;;;;;;;99.97;50.58;;;;;;;7.16;90.02;103900.69;5033546;28;20116;-83
2021/12/17 01:11:56;;;;;;;107.80;48.10;;;;;;;7.16;90.11;103894.59;5050510;28;20484;-83
2021/12/17 01:14:22;;;;;;;96.90;48.47;;;;;;;7.15;90.26;103893.66;5017324;28;20590;-84
2021/12/17 01:16:49;;;;;;;90.18;47.50;;;;;;;7.17;90.02;103888.53;5034401;28;20061;-83
2021/12/17 01:25:00;;;;;;;105.50;51.03;;;;;;;7.17;90.18;103888.53;5008157;28;20108;-83
2021/12/17 01:35:41;;;;;;;104.03;49.75;;;;;;;7.18;90.36;103899.03;5052108;28;20130;-84
2021/12/17 01:43:19;;;;;;;102.75;49.85;;;;;;;7.18;89.97;103880.78;5049512;28;20416;-83
2021/12/17 01:45:47;;;;;;;96.20;48.65;;;;;;;7.19;90.43;103884.31;4994470;28;20103;-83
2021/12/17 01:48:19;;;;;;;101.35;48.15;;;;;;;7.19;90.51;103879.97;5015595;28;20064;-86
2021/12/17 02:01:39;;;;;;;88.63;44.92;;;;;;;7.12;90.74;103880.47;5036971;28;20047;-83
2021/12/17 02:04:05;;;;;;;92.95;47.45;;;;;;;7.10;90.35;103880.41;5033562;28;20037;-84
2021/12/17 02:06:34;;;;;;;91.88;45.60;;;;;;;7.09;90.41;103875.09;5033888;28;20029;-84
2021/12/17 02:09:01;;;;;;;88.70;44.03;;;;;;;7.08;90.24;103882.03;5033711;28;20029;-85
2021/12/17 02:20:11;;;;;;;93.82;46.45;;;;;;;7.00;90.46;103877.25;5049117;28;20171;-75
2021/12/17 02:33:10;;;;;;;93.18;46.53;;;;;;;6.95;91.17;103892.63;5035682;28;20033;-75
2021/12/17 02:35:42;;;;;;;90.05;44.03;;;;;;;6.94;90.87;103902.19;5032600;28;20127;-75
2021/12/17 02:38:10;;;;;;;98.38;46.75;;;;;;;6.95;90.92;103905.66;5030025;28;20032;-75
2021/12/17 02:45:49;;;;;;;100.03;48.90;;;;;;;7.00;90.88;103903.31;5032867;28;20037;-75
2021/12/17 02:48:20;;;;;;;96.95;46.42;;;;;;;6.98;91.22;103895.38;5032513;28;20021;-76
2021/12/17 02:50:50;;;;;;;99.43;51.83;;;;;;;6.99;90.99;103899.81;5031292;28;20392;-75
2021/12/17 02:53:17;;;;;;;97.50;50.60;;;;;;;7.01;91.02;103894.66;5033052;28;20025;-75
2021/12/17 02:55:55;;;;;;;106.25;52.13;;;;;;;7.00;91.11;103887.69;5016154;28;20037;-75
2021/12/17 02:58:22;;;;;;;105.15;53.10;;;;;;;7.00;91.11;103896.38;5032565;28;20036;-75
2021/12/17 03:00:49;;;;;;;101.32;50.03;;;;;;;7.01;91.18;103895.59;5014998;28;20461;-74
2021/12/17 03:03:17;;;;;;;119.53;54.20;;;;;;;7.02;90.88;103896.47;5031540;28;20047;-74
2021/12/17 03:05:42;;;;;;;118.03;55.45;;;;;;;7.02;90.99;103905.16;5032474;28;20119;-74
2021/12/17 03:08:12;;;;;;;105.32;53.33;;;;;;;7.02;91.38;103896.47;5033067;28;20129;-75
2021/12/17 03:10:38;;;;;;;104.45;49.17;;;;;;;7.02;91.17;103902.56;5048257;28;20488;-74
2021/12/17 03:13:11;;;;;;;102.97;50.38;;;;;;;6.98;90.74;103900.59;5033270;28;20036;-75
2021/12/17 03:23:42;;;;;;;112.78;48.65;;;;;;;6.97;91.20;103897.91;5036099;28;20194;-73
2021/12/17 03:26:10;;;;;;;115.38;50.67;;;;;;;6.96;91.77;103901.38;5013019;28;20098;-73
2021/12/17 03:28:38;;;;;;;113.93;52.15;;;;;;;6.97;91.55;103898.84;5030484;28;20037;-83
2021/12/17 03:31:05;;;;;;;103.32;48.92;;;;;;;6.96;92.13;103889.22;5013372;28;20083;-80
2021/12/17 03:33:30;;;;;;;122.78;53.53;;;;;;;6.97;91.72;103893.63;5012513;28;20190;-73
2021/12/17 03:35:57;;;;;;;98.88;45.72;;;;;;;6.97;91.78;103896.22;4996124;28;20552;-74
2021/12/17 03:38:23;;;;;;;100.32;46.67;;;;;;;6.96;91.72;103888.34;4996423;28;20123;-74
2021/12/17 03:40:53;;;;;;;92.25;43.22;;;;;;;6.98;91.06;103889.28;4995593;28;20064;-74
2021/12/17 03:43:23;;;;;;;104.15;43.15;;;;;;;6.97;91.12;103897.91;5010865;28;20037;-74
2021/12/17 03:45:49;;;;;;;;;;;;;;;7.03;90.71;103900.88;5012850;28;20064;-75
2021/12/17 03:48:15;;;;;;;90.90;37.60;;;;;;;6.97;91.29;103898.84;5014955;28;19967;-75
2021/12/17 03:50:41;;;;;;;96.75;41.25;;;;;;;6.96;91.69;103898.75;5015566;28;20173;-75
2021/12/17 03:53:07;;;;;;;90.95;35.80;;;;;;;6.94;91.69;103896.97;5016040;28;20563;-74
2021/12/17 03:55:34;;;;;;;78.68;36.85;;;;;;;6.94;91.68;103904.78;5012782;28;20453;-74
2021/12/17 03:58:00;;;;;;;78.38;35.90;;;;;;;6.93;91.72;103896.88;5016522;28;20492;-75
2021/12/17 04:00:28;;;;;;;71.65;33.63;;;;;;;6.92;91.86;103897.69;5032701;28;20037;-75
2021/12/17 04:02:54;;;;;;;66.63;34.28;;;;;;;6.91;91.83;103888.06;5015654;28;20038;-75
2021/12/17 04:05:20;;;;;;;71.45;33.72;;;;;;;6.92;91.39;103889.88;5015607;28;20088;-75
2021/12/17 04:07:45;;;;;;;81.18;35.85;;;;;;;6.91;91.75;103885.47;5016526;28;20095;-75
2021/12/17 04:10:12;;;;;;;80.90;34.95;;;;;;;6.93;91.23;103891.66;4999185;28;20485;-75
2021/12/17 04:12:52;;;;;;;67.53;31.50;;;;;;;6.94;91.74;103889.13;5015779;28;20061;-75
2021/12/17 04:15:28;;;;;;;73.50;33.72;;;;;;;6.97;91.12;103903.13;5005268;28;20033;-75
2021/12/17 04:17:57;;;;;;;74.57;32.92;;;;;;;6.97;91.23;103893.63;5000453;28;20060;-75
2021/12/17 04:20:22;;;;;;;66.78;31.40;;;;;;;6.97;91.41;103892.72;5015399;28;20037;-75
2021/12/17 04:22:48;;;;;;;81.40;34.30;;;;;;;6.98;91.41;103897.13;5015321;28;20456;-75
2021/12/17 04:25:13;;;;;;;77.13;34.95;;;;;;;6.94;91.22;103886.53;4997364;28;20049;-76
2021/12/17 04:27:39;;;;;;;67.70;31.80;;;;;;;6.94;91.61;103889.13;5013951;28;20445;-75
2021/12/17 04:30:05;;;;;;;68.68;30.85;;;;;;;6.95;91.13;103887.41;5013107;28;20164;-75
2021/12/17 04:32:30;;;;;;;68.03;30.83;;;;;;;6.95;91.57;103884.81;5013616;28;20097;-75
2021/12/17 04:34:56;;;;;;;74.40;31.13;;;;;;;6.98;90.86;103889.28;4997738;28;20033;-75
2021/12/17 04:37:21;;;;;;;68.15;29.48;;;;;;;6.94;91.20;103888.25;5013645;28;20040;-75
2021/12/17 04:39:47;;;;;;;76.00;30.42;;;;;;;6.93;91.48;103886.44;5013616;28;20087;-75
2021/12/17 04:42:39;;;;;;;67.57;30.63;;;;;;;6.94;91.89;103890.88;5013474;28;20041;-75
2021/12/17 04:45:02;;;;;;;75.63;30.55;;;;;;;6.94;91.37;103888.25;5030898;28;20056;-74
2021/12/17 04:58:07;;;;;;;69.00;29.00;;;;;;;6.91;91.10;103878.56;5002199;28;20059;-75
2021/12/17 05:00:33;;;;;;;66.13;28.25;;;;;;;6.91;91.55;103880.25;4991783;28;20025;-75
2021/12/17 05:02:59;;;;;;;66.80;26.70;;;;;;;6.90;91.19;103887.19;5013808;28;20128;-75
2021/12/17 05:05:31;;;;;;;58.35;26.30;;;;;;;6.90;91.21;103883.69;4996977;28;20391;-75
2021/12/17 05:08:02;;;;;;;60.85;27.92;;;;;;;6.88;91.44;103883.63;5010197;28;20124;-74
2021/12/17 05:18:28;;;;;;;55.97;24.80;;;;;;;6.87;91.30;103897.47;5031610;28;20508;-75
2021/12/17 05:20:59;;;;;;;54.00;23.70;;;;;;;6.86;91.57;103895.66;5011613;28;20038;-74
2021/12/17 05:23:30;;;;;;;58.78;25.70;;;;;;;6.84;91.72;103894.69;5011639;28;20060;-75
2021/12/17 05:26:06;;;;;;;60.95;24.02;;;;;;;6.85;91.67;103899.09;4968364;28;1266707;-75
2021/12/17 05:28:32;;;;;;;58.35;22.98;;;;;;;6.83;92.00;103900.72;5029501;28;20045;-75
2021/12/17 05:30:58;;;;;;;48.67;22.13;;;;;;;6.82;91.69;103896.31;5012349;28;20033;-75
2021/12/17 05:33:25;;;;;;;47.25;22.70;;;;;;;6.83;91.41;103903.31;5026962;28;20029;-74
2021/12/17 05:35:51;;;;;;;43.47;20.98;;;;;;;6.78;91.66;103902.19;5016635;28;20032;-74
2021/12/17 05:38:18;;;;;;;49.70;21.73;;;;;;;6.78;91.81;103896.97;5005305;28;20501;-75
2021/12/17 05:40:45;;;;;;;46.10;21.17;;;;;;;6.75;91.85;103902.91;5016368;28;20033;-75
2021/12/17 05:43:11;;;;;;;48.78;20.30;;;;;;;6.76;91.68;103903.81;5015551;28;20037;-74
2021/12/17 05:45:50;;;;;;;41.92;19.60;;;;;;;6.74;91.97;103900.25;5013232;28;20087;-74
2021/12/17 05:48:19;;;;;;;39.22;19.08;;;;;;;6.76;92.17;103903.81;5024363;28;20036;-74
2021/12/17 05:50:46;;;;;;;57.92;18.95;;;;;;;6.76;92.03;103903.81;5012614;28;20025;-75
2021/12/17 05:53:11;;;;;;;45.25;19.85;;;;;;;6.76;91.83;103898.59;5015010;28;20424;-74
2021/12/17 05:55:40;;;;;;;41.50;18.67;;;;;;;6.76;91.83;103904.69;4997480;28;20068;-75
2021/12/17 05:58:07;;;;;;;48.83;20.55;;;;;;;6.74;92.10;103913.28;5018880;28;20021;-75
2021/12/17 06:00:34;;;;;;;41.65;19.13;;;;;;;6.74;91.88;103915.88;4996411;28;20026;-74
2021/12/17 06:03:01;;;;;;;41.97;19.02;;;;;;;6.74;91.02;103921.09;4998125;28;20037;-74
2021/12/17 06:05:28;;;;;;;43.08;19.38;;;;;;;6.72;92.44;103909.66;5014054;28;20033;-74
2021/12/17 06:07:55;;;;;;;45.53;19.85;;;;;;;6.72;92.14;103907.97;5013375;28;20021;-75
2021/12/17 06:10:21;;;;;;;43.75;19.25;;;;;;;6.73;92.20;103916.69;5027898;28;20409;-75
2021/12/17 06:12:47;;;;;;;44.47;19.75;;;;;;;6.73;91.83;103919.28;5012498;28;20030;-75
2021/12/17 06:15:17;;;;;;;41.95;18.65;;;;;;;6.71;92.10;103921.81;5013587;28;20034;-75
2021/12/17 06:17:43;;;;;;;43.38;19.15;;;;;;;6.73;91.79;103921.91;5013083;28;20367;-75
2021/12/17 06:20:12;;;;;;;46.65;19.65;;;;;;;6.71;91.96;103931.31;4997462;28;20061;-74
2021/12/17 06:22:37;;;;;;;39.88;17.23;;;;;;;6.70;92.15;103930.44;5017262;28;20136;-74
2021/12/17 06:25:04;;;;;;;41.50;17.48;;;;;;;6.69;92.22;103932.97;4996749;28;20175;-74
2021/12/17 06:27:29;;;;;;;41.83;17.67;;;;;;;6.69;92.02;103938.19;5012939;28;20474;-75
2021/12/17 06:29:55;;;;;;;44.08;20.65;;;;;;;6.65;92.01;103931.91;5013342;28;20033;-75
2021/12/17 06:32:21;;;;;;;32.67;18.08;;;;;;;6.64;92.01;103930.13;4996295;28;20084;-75
2021/12/17 06:34:48;;;;;;;38.03;18.55;;;;;;;6.63;92.37;103924.81;5030842;28;20037;-74
2021/12/17 06:37:17;;;;;;;35.67;18.42;;;;;;;6.63;91.67;103927.44;5013524;28;20179;-74
2021/12/17 06:39:43;;;;;;;34.85;16.95;;;;;;;6.64;91.46;103921.38;5012770;28;20473;-75
2021/12/17 06:42:09;;;;;;;40.22;17.60;;;;;;;6.65;92.34;103923.19;4994334;28;20104;-75
2021/12/17 06:44:34;;;;;;;44.35;18.70;;;;;;;6.67;91.90;103919.84;4995477;28;20065;-74
2021/12/17 06:47:06;;;;;;;40.95;17.20;;;;;;;6.67;91.97;103918.97;4996572;28;20076;-74
2021/12/17 07:00:13;;;;;;;38.80;17.95;;;;;;;6.71;91.39;103931.31;5028969;28;20489;-74
2021/12/17 07:10:52;;;;;;;41.60;17.90;;;;;;;6.73;91.79;103942.75;5015802;28;20044;-74
2021/12/17 07:39:41;;;;;;;37.60;17.20;;;;;;;6.76;90.69;103912.50;5032659;28;20033;-74
2021/12/17 07:42:06;;;;;;;39.88;18.05;;;;;;;6.77;91.45;103910.81;5021118;28;20500;-75
2021/12/17 07:44:32;;;;;;;31.23;17.67;;;;;;;6.78;91.26;103914.31;5018075;28;20029;-75
2021/12/17 07:46:58;;;;;;;37.15;16.25;;;;;;;6.78;91.64;103907.41;5019800;28;20384;-74
2021/12/17 07:49:23;;;;;;;35.33;17.90;;;;;;;6.80;91.53;103913.59;5052634;28;20029;-74
2021/12/17 07:51:49;;;;;;;35.25;17.50;;;;;;;6.78;91.44;103923.06;5026820;28;20061;-75
2021/12/17 07:54:15;;;;;;;32.03;16.77;;;;;;;6.78;91.37;103920.44;5004659;28;20036;-74
2021/12/17 07:56:40;;;;;;;32.78;17.05;;;;;;;6.79;91.72;103918.72;5030570;28;20040;-74
2021/12/17 07:59:11;;;;;;;38.33;18.35;;;;;;;6.81;91.18;103917.06;5036165;28;20037;-75
2021/12/17 08:01:37;;;;;;;37.63;17.63;;;;;;;6.82;91.17;103918.88;5036299;28;20021;-74
2021/12/17 08:04:04;;;;;;;35.67;18.75;;;;;;;6.84;90.95;103928.59;5039761;28;20594;-75
2021/12/17 08:06:30;;;;;;;37.47;20.48;;;;;;;6.85;91.02;103929.47;5031440;28;20025;-74
2021/12/17 08:08:56;;;;;;;41.38;19.10;;;;;;;6.85;91.60;103935.59;4983601;28;20482;-74
2021/12/17 08:11:22;;;;;;;45.50;19.60;;;;;;;6.87;92.06;103941.78;5011586;28;20033;-78
2021/12/17 08:13:48;;;;;;;37.33;19.17;;;;;;;6.86;90.71;103946.91;5009332;28;20037;-78
2021/12/17 08:24:44;;;;;;;42.88;19.08;;;;;;;6.92;91.04;103940.31;5034188;28;20142;-78
2021/12/17 08:32:01;;;;;;;40.28;19.88;;;;;;;6.96;91.10;103937.88;5026295;28;20098;-79
2021/12/17 08:34:26;;;;;;;36.30;20.05;;;;;;;6.96;91.47;103938.75;5038473;28;20033;-79
2021/12/17 08:36:52;;;;;;;48.35;20.13;;;;;;;6.98;91.25;103944.03;5030163;28;20508;-79
2021/12/17 08:39:17;;;;;;;41.47;20.15;;;;;;;6.98;91.18;103952.75;4998967;28;20033;-79
2021/12/17 08:41:43;;;;;;;40.70;20.30;;;;;;;6.99;91.76;103946.72;4997980;28;20032;-79
2021/12/17 08:44:09;;;;;;;42.20;20.95;;;;;;;6.99;91.51;103948.47;5003917;28;20394;-79
2021/12/17 08:46:36;;;;;;;39.25;18.63;;;;;;;7.00;91.37;103950.25;5013564;28;20393;-79
2021/12/17 08:49:06;;;;;;;44.92;19.40;;;;;;;7.02;91.73;103946.00;4995798;28;20033;-79
2021/12/17 08:51:32;;;;;;;39.15;19.98;;;;;;;7.03;91.95;103940.88;5025761;28;20021;-78
2021/12/17 08:53:57;;;;;;;40.50;20.15;;;;;;;7.04;91.35;103941.75;5031534;28;20047;-79
2021/12/17 08:56:27;;;;;;;40.05;19.80;;;;;;;7.05;91.73;103938.34;5015757;28;20056;-79
2021/12/17 08:58:53;;;;;;;40.15;19.52;;;;;;;7.03;91.48;103940.88;5014913;28;20065;-79
2021/12/17 09:01:20;;;;;;;41.40;19.23;;;;;;;7.04;91.81;103933.94;4999537;28;20160;-79
2021/12/17 09:03:47;;;;;;;41.13;19.08;;;;;;;7.06;91.53;103942.75;5014618;28;20030;-79
2021/12/17 09:06:15;;;;;;;46.47;19.77;;;;;;;7.05;91.50;103947.09;4997872;28;20033;-79
2021/12/17 09:08:41;;;;;;;38.75;20.17;;;;;;;7.06;91.50;103954.06;5013868;28;20029;-79
2021/12/17 09:11:08;;;;;;;37.70;20.17;;;;;;;7.06;92.12;103961.00;5014278;28;20175;-78
2021/12/17 09:13:33;;;;;;;41.85;21.08;;;;;;;7.05;92.20;103965.34;5030291;28;20025;-78
2021/12/17 09:16:05;;;;;;;34.00;18.30;;;;;;;7.06;91.79;103968.81;5029581;28;20033;-79
2021/12/17 09:18:30;;;;;;;32.30;18.90;;;;;;;7.05;92.29;103972.25;5013660;28;20102;-79
2021/12/17 09:20:56;;;;;;;43.45;19.20;;;;;;;7.06;91.83;103968.81;5013593;28;20477;-79
2021/12/17 09:23:23;;;;;;;40.72;18.25;;;;;;;7.06;92.71;103982.75;4997504;28;20034;-78
2021/12/17 09:25:49;;;;;;;42.05;18.50;;;;;;;7.05;92.44;103980.06;5030547;28;20409;-78
2021/12/17 09:28:14;;;;;;;35.65;17.08;;;;;;;7.05;91.96;103980.06;5031701;28;20029;-79
2021/12/17 09:30:40;;;;;;;32.40;16.75;;;;;;;7.06;92.23;103981.88;5014740;28;20099;-79
2021/12/17 09:33:06;;;;;;;41.63;18.40;;;;;;;7.07;92.15;103983.66;4997859;28;20087;-79
2021/12/17 09:35:31;;;;;;;37.10;17.42;;;;;;;7.10;92.16;103978.63;5014658;28;20033;-78
2021/12/17 09:37:57;;;;;;;36.00;15.13;;;;;;;7.09;91.71;103982.91;5014889;28;20029;-78
2021/12/17 09:40:22;;;;;;;37.70;16.38;;;;;;;7.11;92.24;103985.59;4998262;28;20040;-79
2021/12/17 09:42:48;;;;;;;34.40;15.65;;;;;;;7.11;92.37;103977.78;5014707;28;20029;-79
2021/12/17 09:45:16;;;;;;;34.47;16.70;;;;;;;7.13;92.75;103988.31;5007140;28;20037;-79
2021/12/17 09:47:42;;;;;;;34.25;15.95;;;;;;;7.14;91.89;103995.31;4994781;28;20032;-79
2021/12/17 09:50:09;;;;;;;36.88;15.95;;;;;;;7.14;92.79;103990.09;4999833;28;20037;-78
2021/12/17 09:52:35;;;;;;;32.58;14.95;;;;;;;7.13;92.06;104002.25;5029720;28;20048;-79
2021/12/17 09:55:01;;;;;;;35.33;17.45;;;;;;;7.14;91.51;103996.22;4997499;28;20037;-79
2021/12/17 09:57:27;;;;;;;28.83;16.42;;;;;;;7.13;92.33;104007.47;5032340;28;20485;-79
2021/12/17 09:59:53;;;;;;;34.42;16.63;;;;;;;7.13;91.96;104010.06;5006093;28;20250;-77
2021/12/17 10:02:20;;;;;;;37.00;16.70;;;;;;;7.11;92.21;104007.38;5034046;28;20040;-78
2021/12/17 10:04:46;;;;;;;34.85;18.05;;;;;;;7.13;91.97;104009.19;5007619;28;20040;-78
2021/12/17 10:07:22;;;;;;;40.85;17.35;;;;;;;7.16;92.31;104014.56;5011338;28;20034;-79
2021/12/17 10:09:52;;;;;;;35.67;16.48;;;;;;;7.22;92.40;104014.88;4991860;28;20026;-79
2021/12/17 10:12:23;;;;;;;33.45;16.65;;;;;;;7.24;92.34;104014.16;4994690;28;20494;-79
2021/12/17 10:15:13;;;;;;;40.92;16.65;;;;;;;7.31;92.78;104017.06;4993924;28;20025;-79
2021/12/17 10:18:01;;;;;;;34.72;17.98;;;;;;;7.29;92.03;104020.47;5011766;28;20026;-78
2021/12/17 10:20:48;;;;;;;40.53;18.35;;;;;;;7.26;91.74;104012.50;5010880;28;20030;-79
2021/12/17 10:23:13;;;;;;;28.60;14.77;;;;;;;7.31;92.09;104009.25;4994283;28;20355;-78
2021/12/17 10:25:44;;;;;;;30.27;15.77;;;;;;;7.29;92.58;104007.44;5005439;28;20520;-78
2021/12/17 10:28:10;;;;;;;;;;;;;;;7.36;91.33;104010.38;5014581;28;20458;-78
2021/12/17 10:30:39;;;;;;;29.85;15.43;;;;;;;7.33;91.64;104002.41;5012694;28;20289;-79
2021/12/17 10:33:08;;;;;;;34.70;16.95;;;;;;;7.36;92.06;104005.19;5022010;28;20048;-79
2021/12/17 10:35:37;;;;;;;32.60;16.25;;;;;;;7.39;91.76;104014.03;5022888;28;20478;-79
2021/12/17 10:38:06;;;;;;;33.92;15.80;;;;;;;7.42;92.34;104005.47;5013587;28;20053;-79
2021/12/17 10:40:39;;;;;;;38.17;16.63;;;;;;;7.43;91.73;104013.38;5013073;28;20033;-79
2021/12/17 10:43:16;;;;;;;34.08;17.23;;;;;;;7.47;91.78;104014.47;5011483;28;20017;-79
2021/12/17 10:46:00;;;;;;;35.35;16.13;;;;;;;7.47;91.53;104006.63;5011272;28;20025;-78
2021/12/17 10:48:50;;;;;;;29.77;14.70;;;;;;;7.51;91.59;104013.78;5011868;28;20021;-79
2021/12/17 10:54:09;;;;;;;23.45;13.38;;;;;;;7.51;91.61;104026.81;5029266;28;20037;-77
2021/12/17 10:56:43;;;;;;;35.83;15.23;;;;;;;7.57;92.85;104011.50;5016107;28;20029;-78
2021/12/17 10:59:12;;;;;;;22.20;13.93;;;;;;;7.61;93.29;104021.28;5014379;28;20469;-79
2021/12/17 11:01:41;;;;;;;31.58;14.15;;;;;;;7.61;92.64;104022.97;5017757;28;20474;-79
2021/12/17 11:04:24;;;;;;;29.02;16.10;;;;;;;7.59;91.83;104017.69;5031009;28;20041;-78
2021/12/17 11:06:53;;;;;;;28.25;14.70;;;;;;;7.67;92.65;104019.78;5017834;28;20111;-79
2021/12/17 11:09:47;;;;;;;25.70;13.25;;;;;;;7.63;92.01;104011.81;5017362;28;20127;-78
2021/12/17 11:12:28;;;;;;;26.08;14.55;;;;;;;7.67;92.08;104018.09;5019317;28;20389;-77
2021/12/17 11:15:04;;;;;;;29.98;13.52;;;;;;;7.76;92.00;104005.50;5018011;28;20036;-78
2021/12/17 11:17:31;;;;;;;42.70;13.82;;;;;;;7.92;92.30;104016.72;5002099;28;20524;-79
2021/12/17 11:20:00;;;;;;;21.13;12.15;;;;;;;7.94;91.88;104009.84;5044085;28;20046;-83
2021/12/17 11:22:29;;;;;;;22.05;11.52;;;;;;;7.92;91.30;104015.00;5015565;28;20032;-83
2021/12/17 11:24:57;;;;;;;14.93;10.95;;;;;;;7.88;91.10;104005.22;5018952;28;20057;-84
2021/12/17 11:27:23;;;;;;;18.90;12.68;;;;;;;7.88;90.65;104004.34;5002213;28;20037;-84
2021/12/17 11:29:48;;;;;;;25.40;13.05;;;;;;;7.90;91.09;103998.38;4985972;28;20043;-84
2021/12/17 11:32:15;;;;;;;21.20;12.20;;;;;;;7.88;90.70;104000.00;5033117;28;20392;-84
2021/12/17 11:34:42;;;;;;;19.77;11.45;;;;;;;7.90;90.60;103993.16;5017962;28;20037;-85
2021/12/17 11:37:08;;;;;;;16.70;11.77;;;;;;;7.90;90.31;103987.94;5017769;28;20231;-84
2021/12/17 11:39:40;;;;;;;23.67;12.52;;;;;;;7.91;90.14;103989.69;5001679;28;20025;-84
2021/12/17 11:42:36;;;;;;;21.80;12.00;;;;;;;7.93;90.27;103987.16;5020889;28;20535;-83
2021/12/17 11:45:23;;;;;;;23.40;12.27;;;;;;;7.91;90.51;103984.47;5026457;28;20032;-84
2021/12/17 11:47:54;;;;;;;23.17;12.68;;;;;;;7.87;90.30;103982.53;5004339;28;20393;-85
2021/12/17 11:57:16;;;;;;;24.13;14.75;;;;;;;7.94;89.69;103979.44;5036514;28;20140;-86
2021/12/17 12:00:12;;;;;;;33.13;17.80;;;;;;;7.92;90.60;103978.44;4998138;28;20029;-85
2021/12/17 12:02:47;;;;;;;40.40;24.17;;;;;;;7.91;90.27;103976.66;5006558;28;20017;-84
2021/12/17 12:05:34;;;;;;;42.58;26.15;;;;;;;7.90;89.77;103981.78;5006208;28;20505;-82
2021/12/17 12:08:46;;;;;;;38.60;22.92;;;;;;;7.89;90.19;103985.25;5036770;28;20048;-86
2021/12/17 12:11:26;;;;;;;36.83;22.20;;;;;;;7.83;89.81;103991.06;5037121;28;20048;-81
2021/12/17 12:13:54;;;;;;;23.67;16.15;;;;;;;7.75;89.58;103988.03;5036228;28;20021;-83
2021/12/17 12:16:26;;;;;;;25.13;16.35;;;;;;;7.76;89.84;103983.72;5053763;28;20037;-82
2021/12/17 12:19:15;;;;;;;22.70;14.07;;;;;;;7.77;90.75;103990.72;5054660;28;20473;-83
2021/12/17 12:21:41;;;;;;;20.33;14.07;;;;;;;7.77;90.40;103990.72;5037237;28;20029;-83
2021/12/17 12:24:09;;;;;;;18.98;12.85;;;;;;;7.75;89.85;103977.59;5053574;28;20124;-84
2021/12/17 12:26:50;;;;;;;16.38;10.38;;;;;;;7.80;90.05;103976.13;5053773;28;20053;-84
2021/12/17 12:29:21;;;;;;;17.13;12.27;;;;;;;7.78;89.84;103979.47;5038344;28;20428;-82
2021/12/17 12:31:50;;;;;;;15.60;11.48;;;;;;;7.76;89.21;103986.34;5032826;28;20099;-80
2021/12/17 12:34:15;;;;;;;14.85;9.98;;;;;;;7.73;89.66;103976.63;5016148;28;20021;-83
2021/12/17 12:36:50;;;;;;;15.68;11.07;;;;;;;7.73;89.36;103975.72;5033350;28;20450;-82
2021/12/17 12:39:28;;;;;;;13.40;8.75;;;;;;;7.70;89.28;103975.56;5020607;28;20087;-83
2021/12/17 12:41:59;;;;;;;14.23;9.02;;;;;;;7.66;89.42;103977.16;5010236;28;20022;-82
2021/12/17 12:44:44;;;;;;;11.55;8.60;;;;;;;7.67;89.25;103978.94;5016220;28;20034;-81
2021/12/17 12:47:12;;;;;;;15.88;8.25;;;;;;;7.62;89.48;103975.19;5034018;28;20473;-82
2021/12/17 12:50:02;;;;;;;14.30;7.90;;;;;;;7.63;89.52;103983.09;5030342;28;20036;-82
2021/12/17 12:52:30;;;;;;;11.00;6.72;;;;;;;7.60;89.33;103968.97;5014352;28;20098;-82
2021/12/17 12:55:01;;;;;;;11.98;7.55;;;;;;;7.58;89.15;103976.75;5024637;28;20037;-82
2021/12/17 12:57:37;;;;;;;11.50;6.50;;;;;;;7.55;89.01;103963.53;5042523;28;20040;-82
2021/12/17 13:00:14;;;;;;;11.90;6.82;;;;;;;7.57;89.29;103969.75;5024485;28;20062;-82
2021/12/17 13:02:40;;;;;;;8.38;5.72;;;;;;;7.52;88.59;103972.94;5016202;28;20032;-82
2021/12/17 13:05:07;;;;;;;7.20;5.22;;;;;;;7.51;88.38;103978.97;5000613;28;20037;-82
2021/12/17 13:07:42;;;;;;;8.43;5.78;;;;;;;7.48;88.68;103977.09;5021960;28;20044;-81
2021/12/17 13:10:15;;;;;;;7.95;5.63;;;;;;;7.46;89.22;103979.63;5010432;28;20033;-82
2021/12/17 13:12:52;;;;;;;5.47;4.18;;;;;;;7.47;88.90;103975.31;5030123;28;20461;-81
2021/12/17 13:15:44;;;;;;;6.25;4.55;;;;;;;7.45;88.59;103971.72;5044546;28;20052;-81
2021/12/17 13:24:14;;;;;;;7.22;3.90;;;;;;;7.35;88.29;103961.63;4988932;28;20108;-82
2021/12/17 13:26:43;;;;;;;7.05;4.10;;;;;;;7.31;88.04;103963.16;5009030;28;20046;-83
2021/12/17 13:29:31;;;;;;;4.82;3.95;;;;;;;7.32;87.66;103961.47;5041250;28;20022;-81
2021/12/17 13:32:01;;;;;;;5.93;4.18;;;;;;;7.26;87.97;103955.09;5018876;28;20032;-80
2021/12/17 13:34:29;;;;;;;6.50;4.50;;;;;;;7.23;88.15;103957.56;5049467;28;20029;-82
2021/12/17 13:37:07;;;;;;;5.32;4.20;;;;;;;7.20;87.26;103954.81;5022301;28;20032;-83
2021/12/17 13:39:51;;;;;;;7.10;4.72;;;;;;;7.20;87.81;103969.56;5031183;28;20552;-87
2021/12/17 13:42:18;;;;;;;7.22;4.68;;;;;;;7.18;87.35;103972.06;5042850;28;21565;-84
2021/12/17 13:44:56;;;;;;;8.07;6.60;;;;;;;7.15;88.08;103969.31;5017062;28;20037;-82
2021/12/17 13:47:23;;;;;;;5.35;4.53;;;;;;;7.13;87.87;103970.94;5022894;28;20059;-82
2021/12/17 13:50:14;;;;;;;6.00;5.07;;;;;;;7.10;87.92;103969.06;5029827;28;20027;-82
2021/12/17 13:52:54;;;;;;;8.15;4.70;;;;;;;7.09;88.33;103971.59;5019580;28;20032;-83
2021/12/17 13:55:27;;;;;;;5.97;4.57;;;;;;;7.07;87.80;103968.91;5018202;28;20075;-83
2021/12/17 13:57:53;;;;;;;5.68;4.75;;;;;;;7.08;87.51;103965.50;5030367;28;20033;-82
2021/12/17 14:00:25;;;;;;;7.47;5.05;;;;;;;7.08;88.14;103960.28;4995664;28;20108;-83
2021/12/17 14:02:57;;;;;;;5.10;4.18;;;;;;;7.09;88.11;103959.44;5017192;28;20481;-81
2021/12/17 14:05:40;;;;;;;6.85;3.45;;;;;;;7.09;87.82;103969.88;5032141;28;20087;-83
2021/12/17 14:08:09;;;;;;;4.68;3.58;;;;;;;7.09;88.08;103968.97;5034445;28;20377;-82
2021/12/17 14:10:36;;;;;;;45.63;32.50;;;;;;;7.08;87.72;103969.78;5030520;28;20029;-82
2021/12/17 14:13:04;;;;;;;6.68;3.65;;;;;;;7.07;87.80;103965.41;5022204;28;20552;-82
2021/12/17 14:15:35;;;;;;;5.18;4.15;;;;;;;7.06;88.24;103966.22;5049085;28;20060;-83
2021/12/17 14:18:06;;;;;;;6.00;3.72;;;;;;;7.03;88.03;103971.28;5049596;28;20029;-81
2021/12/17 14:20:44;;;;;;;4.53;3.80;;;;;;;7.01;88.00;103970.28;5001996;28;20040;-82
2021/12/17 14:23:21;;;;;;;5.38;4.82;;;;;;;7.00;87.85;103966.78;5040425;28;20028;-81
2021/12/17 14:25:57;;;;;;;5.70;4.90;;;;;;;6.98;87.97;103972.72;5036416;28;20582;-81
2021/12/17 14:28:30;;;;;;;5.78;3.35;;;;;;;6.96;87.90;103950.91;5013748;28;20033;-79
2021/12/17 14:30:56;;;;;;;4.05;3.25;;;;;;;6.95;88.04;103957.81;5016797;28;20040;-79
2021/12/17 14:33:25;;;;;;;5.68;3.47;;;;;;;6.98;88.58;103957.09;5021531;28;20036;-79
2021/12/17 14:36:03;;;;;;;5.32;3.30;;;;;;;6.96;87.96;103958.72;5013520;28;20065;-78
2021/12/17 14:38:48;;;;;;;4.50;3.28;;;;;;;6.96;87.60;103959.63;5017181;28;20362;-78
2021/12/17 14:41:24;;;;;;;4.47;3.03;;;;;;;6.94;88.16;103962.13;5040879;28;20026;-78